createdAt,value
2023-05-05T00:01:37.157Z,3.75
2023-05-05T00:04:04.087Z,6.97
2023-05-05T00:06:31.296Z,3.65
2023-05-05T00:08:58.029Z,3.88
2023-05-05T00:11:25.920Z,4.70
2023-05-05T00:13:52.651Z,6.85
2023-05-05T00:16:19.277Z,6.75
2023-05-05T00:18:45.930Z,7.13
2023-05-05T00:21:13.362Z,4.20
2023-05-05T00:23:39.980Z,7.55
2023-05-05T00:26:06.802Z,3.35
2023-05-05T00:28:33.493Z,4.05
2023-05-05T00:31:00.480Z,7.35
2023-05-05T00:33:27.244Z,7.82
2023-05-05T00:35:53.833Z,4.38
2023-05-05T00:38:20.652Z,5.78
2023-05-05T00:40:47.222Z,5.32
2023-05-05T00:43:13.876Z,4.18
2023-05-05T00:45:42.809Z,7.25
2023-05-05T00:48:09.748Z,6.55
2023-05-05T00:50:37.353Z,3.65
2023-05-05T00:53:06.273Z,5.43
2023-05-05T00:55:34.521Z,5.15
2023-05-05T00:58:03.391Z,5.55
2023-05-05T01:00:30.839Z,9.32
2023-05-05T01:02:57.921Z,6.28
2023-05-05T01:05:26.917Z,6.28
2023-05-05T01:07:56.916Z,6.13
2023-05-05T01:10:44.076Z,5.60
2023-05-05T01:13:37.474Z,6.05
2023-05-05T01:16:15.584Z,6.47
2023-05-05T01:18:59.436Z,5.40
2023-05-05T01:21:31.896Z,3.72
2023-05-05T01:24:22.734Z,5.63
2023-05-05T01:27:00.219Z,4.28
2023-05-05T01:30:03.442Z,4.93
2023-05-05T01:32:33.765Z,6.22
2023-05-05T01:35:03.038Z,4.57
2023-05-05T01:37:37.238Z,9.52
2023-05-05T01:40:08.318Z,4.00
2023-05-05T01:42:37.940Z,6.43
2023-05-05T01:45:08.229Z,6.85
2023-05-05T01:47:37.515Z,4.05
2023-05-05T01:50:06.298Z,5.28
2023-05-05T01:52:35.828Z,7.22
2023-05-05T01:55:04.388Z,9.45
2023-05-05T01:57:33.067Z,5.57
2023-05-05T02:00:03.505Z,5.97
2023-05-05T02:02:31.003Z,4.70
2023-05-05T02:04:58.629Z,6.22
2023-05-05T02:07:26.493Z,3.97
2023-05-05T02:09:54.151Z,7.60
2023-05-05T02:12:21.813Z,4.55
2023-05-05T02:14:50.928Z,4.75
2023-05-05T02:17:18.516Z,7.78
2023-05-05T02:19:47.678Z,6.47
2023-05-05T02:22:16.507Z,6.57
2023-05-05T02:24:43.821Z,4.78
2023-05-05T02:27:11.619Z,6.35
2023-05-05T02:29:45.586Z,5.38
2023-05-05T02:32:18.188Z,4.38
2023-05-05T02:34:47.455Z,5.55
2023-05-05T02:37:21.288Z,5.85
2023-05-05T02:39:58.687Z,4.45
2023-05-05T02:42:29.528Z,4.05
2023-05-05T02:44:59.585Z,4.10
2023-05-05T02:47:38.395Z,5.47
2023-05-05T02:50:07.444Z,10.20
2023-05-05T02:52:35.148Z,4.30
2023-05-05T02:55:03.792Z,4.82
2023-05-05T02:57:53.523Z,7.47
2023-05-05T03:00:25.967Z,6.28
2023-05-05T03:03:14.253Z,5.07
2023-05-05T03:06:06.686Z,5.93
2023-05-05T03:08:43.927Z,6.80
2023-05-05T03:11:21.695Z,6.70
2023-05-05T03:13:55.956Z,5.20
2023-05-05T03:16:24.522Z,4.55
2023-05-05T03:18:52.387Z,6.45
2023-05-05T03:21:19.656Z,7.75
2023-05-05T03:23:46.456Z,4.95
2023-05-05T03:26:17.576Z,4.63
2023-05-05T03:28:44.374Z,7.10
2023-05-05T03:31:12.028Z,4.88
2023-05-05T03:33:38.728Z,4.88
2023-05-05T03:36:05.916Z,4.30
2023-05-05T03:38:32.608Z,4.70
2023-05-05T03:41:02.840Z,4.90
2023-05-05T03:43:29.693Z,4.55
2023-05-05T03:45:56.499Z,4.53
2023-05-05T03:48:23.203Z,6.45
2023-05-05T03:50:49.859Z,5.18
2023-05-05T03:53:16.434Z,6.45
2023-05-05T03:55:43.154Z,5.13
2023-05-05T03:58:09.796Z,8.90
2023-05-05T04:00:36.503Z,4.30
2023-05-05T04:03:03.157Z,6.20
2023-05-05T04:05:29.886Z,5.30
2023-05-05T04:07:57.821Z,5.00
2023-05-05T04:10:24.441Z,6.40
2023-05-05T04:12:51.217Z,6.68
2023-05-05T04:15:17.969Z,5.28
2023-05-05T04:17:44.673Z,5.03
2023-05-05T04:20:11.566Z,7.35
2023-05-05T04:22:38.283Z,6.60
2023-05-05T04:25:05.242Z,5.72
2023-05-05T04:27:32.058Z,6.38
2023-05-05T04:29:58.679Z,6.10
2023-05-05T04:32:25.618Z,5.53
2023-05-05T04:34:52.345Z,8.65
2023-05-05T04:37:19.392Z,7.97
2023-05-05T04:39:46.400Z,7.18
2023-05-05T04:42:12.997Z,11.15
2023-05-05T04:44:39.705Z,5.45
2023-05-05T04:47:06.332Z,6.38
2023-05-05T04:49:32.992Z,5.10
2023-05-05T04:51:59.736Z,7.22
2023-05-05T04:54:26.444Z,5.70
2023-05-05T04:56:53.220Z,7.18
2023-05-05T04:59:20.131Z,6.88
2023-05-05T05:01:46.843Z,9.50
2023-05-05T05:04:13.928Z,10.57
2023-05-05T05:06:40.656Z,7.95
2023-05-05T05:09:07.287Z,5.95
2023-05-05T05:11:33.945Z,7.13
2023-05-05T05:14:00.676Z,9.60
2023-05-05T05:16:27.396Z,8.88
2023-05-05T05:18:54.865Z,7.40
2023-05-05T05:21:21.572Z,8.52
2023-05-05T05:23:48.133Z,9.07
2023-05-05T05:26:14.750Z,9.02
2023-05-05T05:28:41.690Z,10.88
2023-05-05T05:31:08.381Z,7.10
2023-05-05T05:33:35.024Z,6.53
2023-05-05T05:36:01.882Z,9.93
2023-05-05T05:38:28.599Z,6.05
2023-05-05T05:40:55.347Z,6.50
2023-05-05T05:43:21.933Z,5.68
2023-05-05T05:45:48.593Z,9.13
2023-05-05T05:48:15.348Z,10.85
2023-05-05T05:50:41.941Z,12.70
2023-05-05T05:53:08.580Z,10.70
2023-05-05T05:55:35.623Z,11.63
2023-05-05T05:58:02.205Z,11.32
2023-05-05T06:00:28.849Z,12.27
2023-05-05T06:02:55.549Z,13.45
2023-05-05T06:05:22.354Z,11.77
2023-05-05T06:07:48.963Z,11.32
2023-05-05T06:10:27.577Z,10.98
2023-05-05T06:12:56.647Z,9.55
2023-05-05T06:15:23.481Z,6.30
2023-05-05T06:17:50.330Z,9.80
2023-05-05T06:20:16.993Z,11.93
2023-05-05T06:22:43.874Z,8.25
2023-05-05T06:25:11.012Z,11.18
2023-05-05T06:27:37.595Z,10.20
2023-05-05T06:30:04.577Z,10.82
2023-05-05T06:32:31.369Z,9.85
2023-05-05T06:34:57.948Z,12.75
2023-05-05T06:37:24.603Z,7.55
2023-05-05T06:39:51.190Z,12.20
2023-05-05T06:42:17.898Z,12.82
2023-05-05T06:44:44.500Z,7.50
2023-05-05T06:47:11.275Z,11.00
2023-05-05T06:49:37.878Z,15.32
2023-05-05T06:52:04.611Z,10.73
2023-05-05T06:54:31.282Z,12.25
2023-05-05T06:56:59.552Z,11.48
2023-05-05T06:59:26.999Z,13.88
2023-05-05T07:01:53.630Z,19.27
2023-05-05T07:04:21.338Z,14.02
2023-05-05T07:06:47.990Z,19.25
2023-05-05T07:09:16.933Z,15.75
2023-05-05T07:11:44.048Z,14.43
2023-05-05T07:14:10.846Z,13.90
2023-05-05T07:16:37.530Z,15.80
2023-05-05T07:19:06.215Z,18.08
2023-05-05T07:21:34.289Z,13.63
2023-05-05T07:24:02.183Z,14.23
2023-05-05T07:26:29.064Z,16.63
2023-05-05T07:28:57.165Z,11.32
2023-05-05T07:31:23.812Z,11.02
2023-05-05T07:33:50.660Z,14.18
2023-05-05T07:36:18.339Z,11.20
2023-05-05T07:38:45.132Z,12.90
2023-05-05T07:41:12.948Z,11.13
2023-05-05T07:43:44.400Z,11.40
2023-05-05T07:46:11.562Z,11.88
2023-05-05T07:48:41.565Z,13.55
2023-05-05T07:51:09.178Z,12.90
2023-05-05T07:53:35.901Z,12.95
2023-05-05T07:56:02.834Z,12.90
2023-05-05T07:58:29.457Z,10.52
2023-05-05T08:00:56.342Z,18.92
2023-05-05T08:03:24.695Z,16.75
2023-05-05T08:05:56.421Z,15.13
2023-05-05T08:08:24.679Z,14.88
2023-05-05T08:10:52.901Z,15.55
2023-05-05T08:13:19.732Z,20.45
2023-05-05T08:15:46.542Z,18.33
2023-05-05T08:18:13.825Z,16.15
2023-05-05T08:20:40.721Z,18.20
2023-05-05T08:23:07.383Z,12.35
2023-05-05T08:25:34.209Z,17.63
2023-05-05T08:28:00.909Z,15.95
2023-05-05T08:30:27.660Z,19.85
2023-05-05T08:32:55.156Z,14.93
2023-05-05T08:35:22.292Z,16.25
2023-05-05T08:37:50.102Z,18.75
2023-05-05T08:40:16.909Z,16.23
2023-05-05T08:42:45.575Z,16.52
2023-05-05T08:45:12.412Z,16.73
2023-05-05T08:47:39.660Z,16.90
2023-05-05T08:50:09.799Z,17.05
2023-05-05T08:52:44.786Z,15.57
2023-05-05T08:55:24.002Z,14.55
2023-05-05T08:57:58.186Z,11.75
2023-05-05T09:00:26.909Z,13.25
2023-05-05T09:02:56.919Z,14.53
2023-05-05T09:05:24.191Z,12.15
2023-05-05T09:07:51.608Z,11.80
2023-05-05T09:10:18.489Z,15.45
2023-05-05T09:12:45.602Z,13.95
2023-05-05T09:15:14.297Z,14.57
2023-05-05T09:17:44.125Z,14.70
2023-05-05T09:20:12.586Z,9.27
2023-05-05T09:22:40.084Z,10.43
2023-05-05T09:25:09.589Z,6.78
2023-05-05T09:27:37.995Z,11.48
2023-05-05T09:30:09.057Z,8.32
2023-05-05T09:32:47.142Z,10.80
2023-05-05T09:35:14.385Z,8.70
2023-05-05T09:37:41.130Z,10.07
2023-05-05T09:40:09.222Z,7.43
2023-05-05T09:42:37.772Z,8.10
2023-05-05T09:45:17.645Z,6.05
2023-05-05T09:47:46.051Z,6.38
2023-05-05T09:50:18.276Z,6.77
2023-05-05T09:52:57.737Z,10.82
2023-05-05T09:55:25.479Z,7.68
2023-05-05T09:57:52.637Z,5.97
2023-05-05T10:00:19.994Z,6.75
2023-05-05T10:02:46.747Z,5.05
2023-05-05T10:05:14.747Z,8.15
2023-05-05T10:07:43.560Z,8.30
2023-05-05T10:10:16.192Z,4.45
2023-05-05T10:12:43.599Z,6.63
2023-05-05T10:15:11.982Z,5.57
2023-05-05T10:18:02.377Z,5.37
2023-05-05T10:20:34.830Z,3.60
2023-05-05T10:23:05.374Z,6.63
2023-05-05T10:25:37.847Z,5.25
2023-05-05T10:28:09.727Z,3.80
2023-05-05T10:30:42.220Z,3.90
2023-05-05T10:33:31.910Z,3.45
2023-05-05T10:36:02.231Z,4.40
2023-05-05T10:38:32.626Z,4.13
2023-05-05T10:41:02.319Z,3.40
2023-05-05T10:43:30.811Z,6.72
2023-05-05T10:45:58.827Z,5.63
2023-05-05T10:48:35.054Z,5.10
2023-05-05T10:51:38.802Z,4.70
2023-05-05T10:54:32.777Z,3.17
2023-05-05T10:57:04.743Z,5.03
2023-05-05T10:59:37.868Z,5.13
2023-05-05T11:02:29.816Z,4.60
2023-05-05T11:05:21.375Z,2.65
2023-05-05T11:07:50.265Z,2.55
2023-05-05T11:10:20.369Z,2.72
2023-05-05T11:12:59.918Z,2.78
2023-05-05T11:15:26.693Z,1.70
2023-05-05T11:17:55.337Z,6.90
2023-05-05T11:20:37.510Z,2.33
2023-05-05T11:23:04.377Z,1.50
2023-05-05T11:25:52.465Z,3.67
2023-05-05T11:28:29.778Z,2.20
2023-05-05T11:30:56.889Z,1.33
2023-05-05T11:33:32.415Z,3.40
2023-05-05T11:36:07.339Z,1.63
2023-05-05T11:39:14.785Z,2.85
2023-05-05T11:42:20.946Z,2.60
2023-05-05T11:44:47.692Z,1.95
2023-05-05T11:47:17.095Z,4.25
2023-05-05T11:49:43.835Z,2.90
2023-05-05T11:52:12.555Z,1.77
2023-05-05T11:54:49.905Z,1.33
2023-05-05T11:57:26.906Z,1.10
2023-05-05T12:00:06.030Z,3.95
2023-05-05T12:02:33.059Z,0.75
2023-05-05T12:05:00.592Z,1.77
2023-05-05T12:07:29.546Z,1.30
2023-05-05T12:12:38.045Z,1.08
2023-05-05T12:15:06.284Z,1.23
2023-05-05T12:17:51.229Z,0.85
2023-05-05T12:20:18.128Z,1.55
2023-05-05T12:22:44.753Z,0.95
2023-05-05T12:25:11.371Z,2.47
2023-05-05T12:27:38.552Z,2.17
2023-05-05T12:30:16.877Z,3.38
2023-05-05T12:32:44.535Z,3.72
2023-05-05T12:35:12.136Z,1.08
2023-05-05T12:37:39.252Z,1.38
2023-05-05T12:40:07.159Z,6.50
2023-05-05T12:42:38.953Z,3.45
2023-05-05T12:45:07.139Z,0.85
2023-05-05T12:47:34.916Z,1.33
2023-05-05T12:50:03.145Z,0.90
2023-05-05T12:52:50.267Z,2.45
2023-05-05T12:55:17.040Z,1.02
2023-05-05T12:58:04.467Z,1.25
2023-05-05T13:00:31.703Z,2.05
2023-05-05T13:02:58.426Z,0.88
2023-05-05T13:05:36.603Z,2.05
2023-05-05T13:08:03.385Z,2.88
2023-05-05T13:10:31.194Z,3.03
2023-05-05T13:12:58.482Z,0.98
2023-05-05T13:15:26.002Z,5.68
2023-05-05T13:18:02.741Z,1.88
2023-05-05T13:20:29.536Z,2.75
2023-05-05T13:22:56.234Z,1.50
2023-05-05T13:25:23.088Z,3.13
2023-05-05T13:27:49.824Z,3.22
2023-05-05T13:30:16.537Z,6.55
2023-05-05T13:32:43.139Z,1.80
2023-05-05T13:35:10.188Z,1.45
2023-05-05T13:37:37.244Z,0.73
2023-05-05T13:40:04.228Z,3.08
2023-05-05T13:42:30.917Z,1.80
2023-05-05T13:44:57.528Z,1.05
2023-05-05T13:47:24.337Z,0.45
2023-05-05T13:49:51.008Z,1.90
2023-05-05T13:52:18.133Z,2.05
2023-05-05T13:54:44.739Z,3.17
2023-05-05T13:57:12.284Z,1.17
2023-05-05T13:59:38.895Z,3.00
2023-05-05T14:02:06.128Z,1.25
2023-05-05T14:04:33.028Z,4.10
2023-05-05T14:07:01.068Z,2.38
2023-05-05T14:09:27.679Z,1.63
2023-05-05T14:11:54.274Z,3.50
2023-05-05T14:14:20.971Z,2.70
2023-05-05T14:16:50.041Z,1.40
2023-05-05T14:19:17.135Z,1.08
2023-05-05T14:21:43.745Z,1.23
2023-05-05T14:24:10.445Z,1.38
2023-05-05T14:26:37.164Z,1.48
2023-05-05T14:29:03.990Z,4.55
2023-05-05T14:31:30.681Z,2.13
2023-05-05T14:33:57.353Z,8.70
2023-05-05T14:36:24.090Z,1.70
2023-05-05T14:38:50.753Z,3.40
2023-05-05T14:41:17.474Z,0.95
2023-05-05T14:43:44.066Z,1.02
2023-05-05T14:46:10.919Z,2.80
2023-05-05T14:48:37.604Z,2.92
2023-05-05T14:51:04.778Z,2.38
2023-05-05T14:53:31.476Z,0.98
2023-05-05T14:55:58.065Z,0.70
2023-05-05T14:58:24.772Z,5.07
2023-05-05T15:00:55.222Z,1.10
2023-05-05T15:03:21.998Z,1.05
2023-05-05T15:05:48.642Z,2.92
2023-05-05T15:08:15.529Z,4.78
2023-05-05T15:10:42.237Z,3.80
2023-05-05T15:13:09.054Z,3.53
2023-05-05T15:15:35.768Z,4.05
2023-05-05T15:18:02.578Z,2.67
2023-05-05T15:20:29.334Z,2.67
2023-05-05T15:22:56.271Z,5.38
2023-05-05T15:25:23.109Z,2.95
2023-05-05T15:27:49.880Z,2.33
2023-05-05T15:30:16.695Z,3.15
2023-05-05T15:32:43.394Z,0.88
2023-05-05T15:35:10.412Z,2.60
2023-05-05T15:37:37.800Z,2.13
2023-05-05T15:40:05.445Z,4.28
2023-05-05T15:42:32.756Z,2.60
2023-05-05T15:45:00.918Z,2.20
2023-05-05T15:47:27.625Z,4.90
2023-05-05T15:49:54.301Z,6.90
2023-05-05T15:52:21.311Z,5.53
2023-05-05T15:54:47.971Z,3.80
2023-05-05T15:57:14.636Z,3.25
2023-05-05T15:59:41.281Z,3.90
2023-05-05T16:02:07.857Z,2.30
2023-05-05T16:04:34.539Z,4.20
2023-05-05T16:07:03.366Z,3.13
2023-05-05T16:09:29.987Z,1.83
2023-05-05T16:11:56.683Z,4.97
2023-05-05T16:14:23.359Z,3.63
2023-05-05T16:16:50.101Z,3.08
2023-05-05T16:19:18.043Z,2.85
2023-05-05T16:21:44.897Z,7.10
2023-05-05T16:24:15.965Z,4.75
2023-05-05T16:26:43.614Z,4.88
2023-05-05T16:29:10.765Z,2.10
2023-05-05T16:31:37.827Z,7.35
2023-05-05T16:34:04.801Z,5.50
2023-05-05T16:36:31.738Z,9.88
2023-05-05T16:38:58.323Z,5.43
2023-05-05T16:41:26.243Z,2.53
2023-05-05T16:43:53.558Z,3.00
2023-05-05T16:46:20.341Z,7.07
2023-05-05T16:48:47.016Z,5.43
2023-05-05T16:51:13.716Z,3.40
2023-05-05T16:53:40.352Z,3.60
2023-05-05T16:56:11.174Z,2.95
2023-05-05T16:58:37.756Z,3.00
2023-05-05T17:01:04.638Z,4.43
2023-05-05T17:03:31.219Z,2.17
2023-05-05T17:05:58.277Z,2.42
2023-05-05T17:08:24.981Z,3.83
2023-05-05T17:10:51.617Z,3.60
2023-05-05T17:13:19.051Z,1.80
2023-05-05T17:15:45.904Z,3.25
2023-05-05T17:18:12.534Z,3.97
2023-05-05T17:20:39.166Z,2.90
2023-05-05T17:23:05.820Z,2.03
2023-05-05T17:25:32.400Z,4.75
2023-05-05T17:27:58.994Z,3.20
2023-05-05T17:30:26.371Z,7.22
2023-05-05T17:32:53.370Z,1.55
2023-05-05T17:35:20.177Z,3.35
2023-05-05T17:37:46.791Z,3.50
2023-05-05T17:40:13.591Z,3.00
2023-05-05T17:42:40.526Z,4.13
2023-05-05T17:45:08.327Z,1.83
2023-05-05T17:47:36.003Z,4.03
2023-05-05T17:50:03.135Z,5.10
2023-05-05T17:52:29.806Z,2.85
2023-05-05T17:54:56.980Z,5.32
2023-05-05T17:57:23.619Z,2.22
2023-05-05T17:59:51.854Z,6.20
2023-05-05T18:02:19.090Z,3.70
2023-05-05T18:04:46.453Z,2.38
2023-05-05T18:07:14.775Z,5.93
2023-05-05T18:09:41.562Z,2.47
2023-05-05T18:12:08.309Z,1.50
2023-05-05T18:14:35.069Z,2.53
2023-05-05T18:17:01.761Z,2.00
2023-05-05T18:19:28.514Z,4.32
2023-05-05T18:21:55.139Z,2.55
2023-05-05T18:24:21.900Z,5.85
2023-05-05T18:26:52.409Z,2.90
2023-05-05T18:29:21.644Z,3.13
2023-05-05T18:31:51.430Z,1.73
2023-05-05T18:34:18.890Z,3.60
2023-05-05T18:36:46.461Z,1.98
2023-05-05T18:39:13.840Z,5.80
2023-05-05T18:41:41.100Z,8.43
2023-05-05T18:44:07.984Z,6.15
2023-05-05T18:46:34.728Z,2.58
2023-05-05T18:49:01.714Z,11.48
2023-05-05T18:51:28.638Z,4.22
2023-05-05T18:53:55.571Z,3.90
2023-05-05T18:56:22.273Z,2.25
2023-05-05T18:58:49.347Z,2.58
2023-05-05T19:01:16.364Z,3.05
2023-05-05T19:03:47.699Z,2.03
2023-05-05T19:06:15.379Z,1.85
2023-05-05T19:08:42.856Z,3.50
2023-05-05T19:11:10.054Z,1.90
2023-05-05T19:18:33.452Z,4.15
2023-05-05T19:21:00.199Z,2.38
2023-05-05T19:23:26.906Z,4.97
2023-05-05T19:25:54.215Z,4.65
2023-05-05T19:28:21.345Z,4.88
2023-05-05T19:30:48.760Z,2.30
2023-05-05T19:33:16.108Z,1.33
2023-05-05T19:35:43.432Z,6.15
2023-05-05T19:38:10.360Z,8.23
2023-05-05T19:40:40.509Z,5.80
2023-05-05T19:43:07.654Z,3.72
2023-05-05T19:45:34.361Z,3.35
2023-05-05T19:48:01.792Z,4.40
2023-05-05T19:50:30.670Z,3.72
2023-05-05T19:52:57.848Z,3.67
2023-05-05T19:55:24.859Z,2.30
2023-05-05T19:57:51.594Z,3.03
2023-05-05T20:00:19.541Z,4.85
2023-05-05T20:02:46.432Z,6.95
2023-05-05T20:05:14.815Z,4.40
2023-05-05T20:07:44.380Z,4.18
2023-05-05T20:12:47.512Z,6.97
2023-05-05T20:15:20.096Z,4.25
2023-05-05T20:17:47.794Z,3.38
2023-05-05T20:20:20.385Z,5.75
2023-05-05T20:22:48.143Z,4.82
2023-05-05T20:25:16.215Z,1.33
2023-05-05T20:27:43.284Z,3.80
2023-05-05T20:30:10.911Z,2.70
2023-05-05T20:32:37.999Z,1.67
2023-05-05T20:35:05.996Z,2.90
2023-05-05T20:37:32.692Z,2.47
2023-05-05T20:39:59.289Z,3.67
2023-05-05T20:42:27.657Z,3.65
2023-05-05T20:44:54.347Z,2.42
2023-05-05T20:47:21.068Z,1.60
2023-05-05T20:49:47.658Z,2.38
2023-05-05T20:52:14.327Z,2.20
2023-05-05T20:54:40.980Z,1.23
2023-05-05T20:57:07.593Z,7.55
2023-05-05T20:59:34.323Z,2.25
2023-05-05T21:02:01.010Z,2.78
2023-05-05T21:04:27.742Z,1.00
2023-05-05T21:06:54.424Z,2.65
2023-05-05T21:09:23.760Z,1.38
2023-05-05T21:11:50.536Z,5.18
2023-05-05T21:14:17.315Z,1.90
2023-05-05T21:16:44.013Z,2.67
2023-05-05T21:19:10.729Z,1.80
2023-05-05T21:21:37.338Z,2.53
2023-05-05T21:24:05.600Z,1.65
2023-05-05T21:26:34.295Z,2.50
2023-05-05T21:29:00.978Z,1.85
2023-05-05T21:31:27.596Z,1.85
2023-05-05T21:33:54.254Z,1.95
2023-05-05T21:36:21.303Z,2.35
2023-05-05T21:38:48.152Z,3.13
2023-05-05T21:41:14.808Z,1.60
2023-05-05T21:43:41.537Z,3.13
2023-05-05T21:46:09.047Z,3.97
2023-05-05T21:48:38.622Z,5.53
2023-05-05T21:53:32.076Z,2.03
2023-05-05T21:55:59.027Z,5.95
2023-05-05T21:58:25.628Z,2.90
2023-05-05T22:00:52.506Z,1.40
2023-05-05T22:03:19.284Z,2.83
2023-05-05T22:05:46.143Z,3.70
2023-05-05T22:08:12.776Z,3.03
2023-05-05T22:10:39.542Z,3.40
2023-05-05T22:13:06.328Z,1.88
2023-05-05T22:15:45.425Z,4.63
2023-05-05T22:18:13.947Z,1.00
2023-05-05T22:20:40.665Z,4.63
2023-05-05T22:23:07.348Z,2.47
2023-05-05T22:25:33.953Z,2.15
2023-05-05T22:28:00.678Z,1.90
2023-05-05T22:30:27.248Z,5.97
2023-05-05T22:32:54.147Z,6.22
2023-05-05T22:35:20.874Z,6.30
2023-05-05T22:37:47.477Z,2.15
2023-05-05T22:40:14.177Z,1.17
2023-05-05T22:42:40.943Z,4.57
2023-05-05T22:45:08.567Z,6.82
2023-05-05T22:47:35.756Z,2.78
2023-05-05T22:50:02.699Z,1.95
2023-05-05T22:52:29.452Z,3.75
2023-05-05T22:54:56.281Z,2.47
2023-05-05T22:57:23.024Z,1.52
2023-05-05T22:59:50.395Z,2.33
2023-05-05T23:02:16.983Z,2.85
2023-05-05T23:04:44.822Z,3.03
2023-05-05T23:07:12.718Z,2.40
2023-05-05T23:09:39.667Z,3.40
2023-05-05T23:12:06.610Z,1.83
2023-05-05T23:14:33.319Z,1.63
2023-05-05T23:16:59.954Z,3.67
2023-05-05T23:19:28.994Z,2.92
2023-05-05T23:21:55.708Z,3.22
2023-05-05T23:24:22.445Z,3.80
2023-05-05T23:26:49.084Z,1.73
2023-05-05T23:29:15.659Z,3.50
2023-05-05T23:31:42.360Z,3.78
2023-05-05T23:34:09.094Z,2.03
2023-05-05T23:36:35.839Z,2.15
2023-05-05T23:39:02.486Z,2.53
2023-05-05T23:41:29.118Z,4.75
2023-05-05T23:43:56.721Z,2.15
2023-05-05T23:46:24.072Z,3.42
2023-05-05T23:48:51.110Z,3.00
2023-05-05T23:51:17.896Z,3.10
2023-05-05T23:53:44.486Z,2.92
2023-05-05T23:56:11.365Z,2.50
2023-05-05T23:58:38.049Z,4.35
